createdAt,value
2018-02-27T00:00:38.651Z,0
2018-02-27T00:01:38.667Z,0
2018-02-27T00:02:38.068Z,0
2018-02-27T00:03:38.559Z,0
2018-02-27T00:04:39.061Z,0
2018-02-27T00:05:38.518Z,0
2018-02-27T00:06:38.750Z,0
2018-02-27T00:07:38.468Z,0
2018-02-27T00:08:38.949Z,0
2018-02-27T00:09:38.395Z,0
2018-02-27T00:10:38.630Z,0
2018-02-27T00:11:38.079Z,0
2018-02-27T00:12:38.847Z,0
2018-02-27T00:13:38.278Z,0
2018-02-27T00:14:38.296Z,0
2018-02-27T00:15:38.537Z,0
2018-02-27T00:16:38.251Z,0
2018-02-27T00:17:38.165Z,0
2018-02-27T00:18:38.670Z,0
2018-02-27T00:19:38.121Z,0
2018-02-27T00:20:38.086Z,0
2018-02-27T00:21:37.528Z,0
2018-02-27T00:22:38.040Z,0
2018-02-27T00:23:37.733Z,0
2018-02-27T00:24:37.996Z,0
2018-02-27T00:25:38.223Z,0
2018-02-27T00:26:38.183Z,0
2018-02-27T00:27:38.209Z,0
2018-02-27T00:28:37.853Z,0
2018-02-27T00:29:37.567Z,0
2018-02-27T00:30:38.070Z,0
2018-02-27T00:31:38.366Z,0
2018-02-27T00:32:37.480Z,0
2018-02-27T00:33:37.188Z,0
2018-02-27T00:34:37.419Z,0
2018-02-27T00:35:37.936Z,0
2018-02-27T00:36:37.639Z,0
2018-02-27T00:37:37.341Z,0
2018-02-27T00:38:38.109Z,0
2018-02-27T00:39:37.542Z,0
2018-02-27T00:40:37.261Z,0
2018-02-27T00:41:37.493Z,0
2018-02-27T00:42:37.473Z,0
2018-02-27T00:43:37.701Z,0
2018-02-27T00:44:37.403Z,0
2018-02-27T00:45:37.422Z,0
2018-02-27T00:46:37.084Z,0
2018-02-27T00:47:37.855Z,0
2018-02-27T00:48:37.025Z,0
2018-02-27T00:49:36.999Z,0
2018-02-27T00:50:36.971Z,0
2018-02-27T00:51:36.941Z,0
2018-02-27T00:52:36.911Z,0
2018-02-27T00:53:37.418Z,0
2018-02-27T00:54:37.122Z,0
2018-02-27T00:55:36.826Z,0
2018-02-27T00:56:37.065Z,0
2018-02-27T00:57:37.301Z,0
2018-02-27T00:58:37.011Z,0
2018-02-27T00:59:36.981Z,0
2018-02-27T01:00:37.482Z,0
2018-02-27T01:01:36.928Z,0
2018-02-27T01:02:37.425Z,0
2018-02-27T01:03:37.392Z,0
2018-02-27T01:04:36.838Z,0
2018-02-27T01:05:36.810Z,0
2018-02-27T01:06:37.044Z,0
2018-02-27T01:07:37.279Z,0
2018-02-27T01:08:36.192Z,0
2018-02-27T01:09:36.699Z,0
2018-02-27T01:10:36.677Z,0
2018-02-27T01:11:36.382Z,0
2018-02-27T01:12:36.608Z,0
2018-02-27T01:13:36.581Z,0
2018-02-27T01:14:36.548Z,0
2018-02-27T01:15:37.067Z,0
2018-02-27T01:16:36.229Z,0
2018-02-27T01:17:37.006Z,0
2018-02-27T01:18:36.974Z,0
2018-02-27T01:19:36.153Z,0
2018-02-27T01:20:36.440Z,0
2018-02-27T01:21:36.370Z,0
2018-02-27T01:22:36.527Z,0
2018-02-27T01:23:36.045Z,0
2018-02-27T01:24:36.008Z,0
2018-02-27T01:25:36.237Z,0
2018-02-27T01:26:36.217Z,0
2018-02-27T01:27:36.189Z,0
2018-02-27T01:28:36.156Z,0
2018-02-27T01:29:36.402Z,0
2018-02-27T01:30:36.099Z,0
2018-02-27T01:31:36.074Z,0
2018-02-27T01:32:36.037Z,0
2018-02-27T01:33:36.012Z,0
2018-02-27T01:34:36.248Z,0
2018-02-27T01:35:35.964Z,0
2018-02-27T01:36:35.659Z,0
2018-02-27T01:37:35.906Z,0
2018-02-27T01:38:35.609Z,0
2018-02-27T01:39:36.122Z,0
2018-02-27T01:40:36.081Z,0
2018-02-27T01:41:35.780Z,0
2018-02-27T01:42:36.026Z,0
2018-02-27T01:43:36.004Z,0
2018-02-27T01:44:35.698Z,0
2018-02-27T01:45:35.406Z,0
2018-02-27T01:46:35.640Z,0
2018-02-27T01:47:35.344Z,0
2018-02-27T01:48:35.854Z,0
2018-02-27T01:49:35.825Z,0
2018-02-27T01:50:35.539Z,0
2018-02-27T01:51:35.768Z,0
2018-02-27T01:52:35.468Z,0
2018-02-27T01:53:36.035Z,0
2018-02-27T01:54:35.432Z,0
2018-02-27T01:55:35.665Z,0
2018-02-27T01:56:35.700Z,0
2018-02-27T01:57:35.059Z,0
2018-02-27T01:58:35.848Z,0
2018-02-27T01:59:35.264Z,0
2018-02-27T02:00:35.238Z,0
2018-02-27T02:01:35.213Z,0
2018-02-27T02:02:35.190Z,0
2018-02-27T02:03:35.153Z,0
2018-02-27T02:04:35.402Z,0
2018-02-27T02:05:35.366Z,0
2018-02-27T02:06:35.067Z,0
2018-02-27T02:07:35.308Z,0
2018-02-27T02:08:35.275Z,0
2018-02-27T02:09:34.985Z,0
2018-02-27T02:10:34.695Z,0
2018-02-27T02:11:34.943Z,0
2018-02-27T02:12:34.903Z,0
2018-02-27T02:13:34.862Z,0
2018-02-27T02:14:35.102Z,0
2018-02-27T02:15:34.813Z,0
2018-02-27T02:16:34.786Z,0
2018-02-27T02:17:34.486Z,0
2018-02-27T02:18:34.469Z,0
2018-02-27T02:19:34.703Z,0
2018-02-27T02:20:34.664Z,0
2018-02-27T02:21:34.901Z,0
2018-02-27T02:22:34.610Z,0
2018-02-27T02:23:34.848Z,0
2018-02-27T02:24:34.634Z,0
2018-02-27T02:25:34.522Z,0
2018-02-27T02:26:34.503Z,0
2018-02-27T02:27:34.994Z,0
2018-02-27T02:28:34.439Z,0
2018-02-27T02:29:34.417Z,0
2018-02-27T02:30:34.433Z,0
2018-02-27T02:31:34.098Z,0
2018-02-27T02:32:34.336Z,0
2018-02-27T02:33:34.340Z,0
2018-02-27T02:34:34.264Z,0
2018-02-27T02:35:33.972Z,0
2018-02-27T02:36:34.738Z,0
2018-02-27T02:37:34.449Z,0
2018-02-27T02:38:33.882Z,0
2018-02-27T02:39:34.397Z,0
2018-02-27T02:40:34.352Z,0
2018-02-27T02:41:34.326Z,0
2018-02-27T02:42:34.035Z,0
2018-02-27T02:43:33.741Z,0
2018-02-27T02:44:34.238Z,0
2018-02-27T02:45:34.210Z,0
2018-02-27T02:46:34.175Z,0
2018-02-27T02:47:33.887Z,0
2018-02-27T02:48:33.610Z,0
2018-02-27T02:49:33.617Z,0
2018-02-27T02:50:33.265Z,0
2018-02-27T02:51:34.034Z,0
2018-02-27T02:52:33.747Z,0
2018-02-27T02:53:33.443Z,0
2018-02-27T02:54:33.414Z,0
2018-02-27T02:55:33.923Z,0
2018-02-27T02:56:33.891Z,0
2018-02-27T02:57:33.329Z,0
2018-02-27T02:58:33.565Z,0
2018-02-27T02:59:34.065Z,0
2018-02-27T03:00:33.783Z,0
2018-02-27T03:01:33.490Z,0
2018-02-27T03:02:33.446Z,0
2018-02-27T03:03:33.693Z,0
2018-02-27T03:04:33.659Z,0
2018-02-27T03:05:33.105Z,0
2018-02-27T03:06:33.594Z,0
2018-02-27T03:07:33.906Z,0
2018-02-27T03:08:33.564Z,0
2018-02-27T03:09:33.517Z,0
2018-02-27T03:10:32.952Z,0
2018-02-27T03:11:33.727Z,0
2018-02-27T03:12:33.163Z,0
2018-02-27T03:13:32.866Z,0
2018-02-27T03:14:33.374Z,0
2018-02-27T03:15:33.076Z,0
2018-02-27T03:16:33.581Z,0
2018-02-27T03:17:33.049Z,0
2018-02-27T03:18:33.251Z,0
2018-02-27T03:19:32.954Z,0
2018-02-27T03:20:32.665Z,0
2018-02-27T03:21:33.432Z,0
2018-02-27T03:22:32.597Z,0
2018-02-27T03:23:32.621Z,0
2018-02-27T03:24:32.808Z,0
2018-02-27T03:25:33.040Z,0
2018-02-27T03:26:33.020Z,0
2018-02-27T03:27:32.995Z,0
2018-02-27T03:28:32.958Z,0
2018-02-27T03:29:32.922Z,0
2018-02-27T03:30:32.913Z,0
2018-02-27T03:31:32.890Z,0
2018-02-27T03:32:32.308Z,0
2018-02-27T03:33:33.073Z,0
2018-02-27T03:34:32.521Z,0
2018-02-27T03:35:32.221Z,0
2018-02-27T03:36:33.000Z,0
2018-02-27T03:37:32.171Z,0
2018-02-27T03:38:32.394Z,0
2018-02-27T03:39:32.421Z,0
2018-02-27T03:40:32.072Z,0
2018-02-27T03:41:32.043Z,0
2018-02-27T03:42:31.764Z,0
2018-02-27T03:43:31.988Z,0
2018-02-27T03:44:32.222Z,0
2018-02-27T03:45:32.463Z,0
2018-02-27T03:46:32.163Z,0
2018-02-27T03:47:32.668Z,0
2018-02-27T03:48:32.377Z,0
2018-02-27T03:49:32.339Z,0
2018-02-27T03:50:31.786Z,0
2018-02-27T03:51:31.761Z,0
2018-02-27T03:52:32.255Z,0
2018-02-27T03:53:31.977Z,0
2018-02-27T03:54:31.983Z,0
2018-02-27T03:55:31.899Z,0
2018-02-27T03:56:31.601Z,0
2018-02-27T03:57:31.850Z,0
2018-02-27T03:58:31.551Z,0
2018-02-27T03:59:31.255Z,0
2018-02-27T04:00:31.757Z,0
2018-02-27T04:01:32.016Z,0
2018-02-27T04:02:31.698Z,0
2018-02-27T04:03:31.934Z,0
2018-02-27T04:04:31.900Z,0
2018-02-27T04:05:31.870Z,0
2018-02-27T04:06:31.853Z,0
2018-02-27T04:07:31.558Z,0
2018-02-27T04:08:31.793Z,0
2018-02-27T04:09:31.768Z,0
2018-02-27T04:10:31.195Z,0
2018-02-27T04:11:31.433Z,0
2018-02-27T04:12:31.411Z,0
2018-02-27T04:13:30.869Z,0
2018-02-27T04:14:31.082Z,0
2018-02-27T04:15:31.581Z,0
2018-02-27T04:16:31.571Z,0
2018-02-27T04:17:31.251Z,0
2018-02-27T04:18:31.232Z,0
2018-02-27T04:19:31.733Z,0
2018-02-27T04:20:31.168Z,0
2018-02-27T04:21:31.686Z,0
2018-02-27T04:22:30.878Z,0
2018-02-27T04:23:31.358Z,0
2018-02-27T04:24:31.339Z,0
2018-02-27T04:25:31.572Z,0
2018-02-27T04:26:30.731Z,0
2018-02-27T04:27:30.985Z,0
2018-02-27T04:28:30.670Z,0
2018-02-27T04:29:31.200Z,0
2018-02-27T04:30:30.905Z,0
2018-02-27T04:31:30.854Z,0
2018-02-27T04:32:30.553Z,0
2018-02-27T04:33:31.322Z,0
2018-02-27T04:34:30.492Z,0
2018-02-27T04:35:30.744Z,0
2018-02-27T04:36:30.704Z,0
2018-02-27T04:37:30.697Z,0
2018-02-27T04:38:30.646Z,0
2018-02-27T04:39:30.883Z,0
2018-02-27T04:40:30.855Z,0
2018-02-27T04:41:30.323Z,0
2018-02-27T04:42:31.058Z,0
2018-02-27T04:43:30.231Z,0
2018-02-27T04:44:29.938Z,0
2018-02-27T04:45:30.449Z,0
2018-02-27T04:46:30.409Z,0
2018-02-27T04:47:30.383Z,0
2018-02-27T04:48:30.091Z,0
2018-02-27T04:49:29.790Z,0
2018-02-27T04:50:29.761Z,0
2018-02-27T04:51:30.527Z,0
2018-02-27T04:52:30.765Z,0
2018-02-27T04:53:30.467Z,0
2018-02-27T04:54:29.911Z,0
2018-02-27T04:55:30.412Z,0
2018-02-27T04:56:30.113Z,0
2018-02-27T04:57:30.614Z,0
2018-02-27T04:58:30.318Z,0
2018-02-27T04:59:29.761Z,0
2018-02-27T05:00:30.250Z,0
2018-02-27T05:01:29.436Z,0
2018-02-27T05:02:29.938Z,0
2018-02-27T05:03:29.906Z,0
2018-02-27T05:04:30.136Z,0
2018-02-27T05:05:29.851Z,0
2018-02-27T05:06:29.816Z,0
2018-02-27T05:07:29.789Z,0
2018-02-27T05:08:30.054Z,0
2018-02-27T05:09:29.477Z,0
2018-02-27T05:10:29.704Z,0
2018-02-27T05:11:29.410Z,0
2018-02-27T05:12:29.905Z,0
2018-02-27T05:13:29.878Z,0
2018-02-27T05:14:29.846Z,0
2018-02-27T05:15:29.549Z,0
2018-02-27T05:16:29.856Z,0
2018-02-27T05:17:29.768Z,0
2018-02-27T05:18:29.473Z,0
2018-02-27T05:19:29.433Z,0
2018-02-27T05:20:29.672Z,0
2018-02-27T05:21:29.635Z,0
2018-02-27T05:22:29.355Z,0
2018-02-27T05:23:29.785Z,0
2018-02-27T05:24:29.020Z,0
2018-02-27T05:25:29.788Z,0
2018-02-27T05:26:29.520Z,0
2018-02-27T05:27:29.723Z,0
2018-02-27T05:28:29.699Z,0
2018-02-27T05:29:29.166Z,0
2018-02-27T05:30:29.103Z,0
2018-02-27T05:31:28.812Z,0
2018-02-27T05:32:28.784Z,0
2018-02-27T05:33:29.016Z,0
2018-02-27T05:34:29.271Z,0
2018-02-27T05:35:29.236Z,0
2018-02-27T05:36:28.930Z,0
2018-02-27T05:37:29.443Z,0
2018-02-27T05:38:28.867Z,0
2018-02-27T05:39:29.164Z,0
2018-02-27T05:40:28.818Z,0
2018-02-27T05:41:29.343Z,0
2018-02-27T05:42:29.030Z,0
2018-02-27T05:43:28.475Z,0
2018-02-27T05:44:28.434Z,0
2018-02-27T05:45:28.942Z,0
2018-02-27T05:46:28.911Z,0
2018-02-27T05:47:28.865Z,0
2018-02-27T05:48:28.577Z,0
2018-02-27T05:49:28.555Z,0
2018-02-27T05:50:28.245Z,0
2018-02-27T05:51:27.962Z,0
2018-02-27T05:52:28.189Z,0
2018-02-27T05:53:28.699Z,0
2018-02-27T05:54:28.150Z,0
2018-02-27T05:55:28.634Z,0
2018-02-27T05:56:28.377Z,0
2018-02-27T05:57:28.589Z,0
2018-02-27T05:58:28.270Z,0
2018-02-27T05:59:27.992Z,0
2018-02-27T06:00:28.493Z,0
2018-02-27T06:01:28.509Z,0
2018-02-27T06:02:28.690Z,0
2018-02-27T06:03:27.867Z,0
2018-02-27T06:04:28.633Z,0
2018-02-27T06:05:27.810Z,0
2018-02-27T06:06:27.774Z,0
2018-02-27T06:07:28.012Z,0
2018-02-27T06:08:28.254Z,0
2018-02-27T06:09:28.252Z,0
2018-02-27T06:10:27.916Z,0
2018-02-27T06:11:27.894Z,0
2018-02-27T06:12:27.598Z,0
2018-02-27T06:13:28.099Z,0
2018-02-27T06:14:27.270Z,0
2018-02-27T06:15:27.512Z,0
2018-02-27T06:16:27.478Z,0
2018-02-27T06:17:27.455Z,0
2018-02-27T06:18:28.218Z,5
2018-02-27T06:19:27.390Z,5
2018-02-27T06:20:27.623Z,5
2018-02-27T06:21:27.599Z,5
2018-02-27T06:22:27.564Z,5
2018-02-27T06:23:27.528Z,5
2018-02-27T06:24:27.775Z,5
2018-02-27T06:25:27.207Z,5
2018-02-27T06:26:27.967Z,5
2018-02-27T06:27:26.884Z,10
2018-02-27T06:28:27.389Z,10
2018-02-27T06:29:27.357Z,10
2018-02-27T06:30:27.093Z,10
2018-02-27T06:31:27.667Z,10
2018-02-27T06:32:27.017Z,15
2018-02-27T06:33:27.773Z,15
2018-02-27T06:34:27.209Z,15
2018-02-27T06:35:26.963Z,15
2018-02-27T06:36:27.154Z,15
2018-02-27T06:37:27.726Z,15
2018-02-27T06:38:27.358Z,15
2018-02-27T06:39:27.324Z,20
2018-02-27T06:40:27.034Z,20
2018-02-27T06:41:27.266Z,20
2018-02-27T06:42:27.509Z,20
2018-02-27T06:43:27.210Z,25
2018-02-27T06:44:26.909Z,25
2018-02-27T06:45:26.617Z,25
2018-02-27T06:46:27.377Z,30
2018-02-27T06:47:26.553Z,30
2018-02-27T06:48:27.054Z,30
2018-02-27T06:49:27.036Z,30
2018-02-27T06:50:27.000Z,30
2018-02-27T06:51:26.438Z,30
2018-02-27T06:52:26.941Z,30
2018-02-27T06:53:26.642Z,35
2018-02-27T06:54:26.354Z,35
2018-02-27T06:55:26.643Z,35
2018-02-27T06:56:26.818Z,35
2018-02-27T06:57:26.786Z,35
2018-02-27T06:58:26.765Z,35
2018-02-27T06:59:26.214Z,35
2018-02-27T07:00:26.481Z,35
2018-02-27T07:01:26.162Z,35
2018-02-27T07:02:26.653Z,40
2018-02-27T07:03:26.348Z,40
2018-02-27T07:04:26.320Z,40
2018-02-27T07:05:26.875Z,40
2018-02-27T07:06:26.577Z,40
2018-02-27T07:07:26.513Z,40
2018-02-27T07:08:26.247Z,45
2018-02-27T07:09:25.940Z,45
2018-02-27T07:10:26.480Z,50
2018-02-27T07:11:26.137Z,50
2018-02-27T07:12:26.350Z,55
2018-02-27T07:13:26.320Z,55
2018-02-27T07:14:26.027Z,60
2018-02-27T07:15:26.322Z,65
2018-02-27T07:16:25.973Z,70
2018-02-27T07:17:25.667Z,75
2018-02-27T07:18:26.222Z,75
2018-02-27T07:19:25.886Z,75
2018-02-27T07:20:26.124Z,75
2018-02-27T07:21:25.822Z,75
2018-02-27T07:22:25.261Z,75
2018-02-27T07:23:25.972Z,75
2018-02-27T07:24:26.000Z,75
2018-02-27T07:25:25.970Z,75
2018-02-27T07:26:25.410Z,75
2018-02-27T07:27:25.376Z,75
2018-02-27T07:28:25.348Z,75
2018-02-27T07:29:25.321Z,75
2018-02-27T07:30:25.827Z,70
2018-02-27T07:31:25.532Z,70
2018-02-27T07:32:24.971Z,70
2018-02-27T07:33:25.469Z,75
2018-02-27T07:34:25.976Z,80
2018-02-27T07:35:26.048Z,80
2018-02-27T07:36:25.385Z,80
2018-02-27T07:37:25.624Z,80
2018-02-27T07:38:25.864Z,80
2018-02-27T07:39:25.300Z,80
2018-02-27T07:40:25.013Z,80
2018-02-27T07:41:25.248Z,80
2018-02-27T07:42:25.483Z,80
2018-02-27T07:43:25.453Z,85
2018-02-27T07:44:25.164Z,90
2018-02-27T07:45:24.873Z,90
2018-02-27T07:46:25.102Z,90
2018-02-27T07:47:25.353Z,85
2018-02-27T07:48:25.594Z,85
2018-02-27T07:49:25.314Z,90
2018-02-27T07:50:25.296Z,95
2018-02-27T07:51:25.241Z,95
2018-02-27T07:52:24.677Z,95
2018-02-27T07:53:24.913Z,90
2018-02-27T07:54:24.882Z,85
2018-02-27T07:55:24.589Z,85
2018-02-27T07:56:24.290Z,80
2018-02-27T07:57:24.803Z,80
2018-02-27T07:58:24.781Z,85
2018-02-27T07:59:24.743Z,80
2018-02-27T08:00:24.974Z,85
2018-02-27T08:01:24.698Z,90
2018-02-27T08:02:24.664Z,100
2018-02-27T08:03:24.949Z,110
2018-02-27T08:04:24.065Z,110
2018-02-27T08:05:24.837Z,110
2018-02-27T08:06:25.092Z,105
2018-02-27T08:07:24.789Z,120
2018-02-27T08:08:24.751Z,135
2018-02-27T08:09:24.192Z,140
2018-02-27T08:10:24.703Z,135
2018-02-27T08:11:24.676Z,135
2018-02-27T08:12:24.113Z,135
2018-02-27T08:13:24.612Z,135
2018-02-27T08:14:24.317Z,135
2018-02-27T08:15:24.565Z,135
2018-02-27T08:16:24.283Z,135
2018-02-27T08:17:24.243Z,140
2018-02-27T08:18:24.213Z,145
2018-02-27T08:19:23.942Z,155
2018-02-27T08:20:23.929Z,165
2018-02-27T08:21:24.142Z,165
2018-02-27T08:22:24.384Z,175
2018-02-27T08:23:24.345Z,175
2018-02-27T08:24:24.077Z,170
2018-02-27T08:25:24.049Z,160
2018-02-27T08:26:24.031Z,150
2018-02-27T08:27:23.969Z,135
2018-02-27T08:28:23.677Z,140
2018-02-27T08:29:23.920Z,150
2018-02-27T08:30:23.895Z,200
2018-02-27T08:31:24.404Z,235
2018-02-27T08:32:24.094Z,285
2018-02-27T08:33:23.823Z,280
2018-02-27T08:34:23.259Z,185
2018-02-27T08:35:24.314Z,170
2018-02-27T08:36:23.741Z,280
2018-02-27T08:37:23.708Z,475
2018-02-27T08:38:23.967Z,575
2018-02-27T08:39:23.655Z,575
2018-02-27T08:40:23.631Z,545
2018-02-27T08:41:23.325Z,565
2018-02-27T08:42:23.579Z,600
2018-02-27T08:43:23.830Z,620
2018-02-27T08:44:23.593Z,605
2018-02-27T08:45:23.504Z,535
2018-02-27T08:46:23.489Z,515
2018-02-27T08:47:23.458Z,535
2018-02-27T08:48:23.980Z,590
2018-02-27T08:49:23.429Z,605
2018-02-27T08:50:23.402Z,580
2018-02-27T08:51:23.370Z,610
2018-02-27T08:52:23.880Z,630
2018-02-27T08:53:23.061Z,585
2018-02-27T08:54:23.048Z,575
2018-02-27T08:55:23.299Z,600
2018-02-27T08:56:23.599Z,685
2018-02-27T08:57:23.559Z,735
2018-02-27T08:58:23.226Z,690
2018-02-27T08:59:23.465Z,640
2018-02-27T09:00:23.197Z,650
2018-02-27T09:01:23.440Z,630
2018-02-27T09:02:23.414Z,555
2018-02-27T09:03:22.866Z,520
2018-02-27T09:04:23.393Z,555
2018-02-27T09:05:23.098Z,640
2018-02-27T09:06:23.075Z,715
2018-02-27T09:07:23.586Z,700
2018-02-27T09:08:23.047Z,515
2018-02-27T09:09:23.070Z,385
2018-02-27T09:10:23.267Z,565
2018-02-27T09:11:22.994Z,590
2018-02-27T09:12:22.702Z,545
2018-02-27T09:13:23.221Z,505
2018-02-27T09:14:22.936Z,500
2018-02-27T09:15:22.915Z,455
2018-02-27T09:16:23.172Z,445
2018-02-27T09:17:22.618Z,420
2018-02-27T09:18:23.396Z,460
2018-02-27T09:19:23.295Z,435
2018-02-27T09:20:22.936Z,670
2018-02-27T09:21:22.811Z,770
2018-02-27T09:22:22.797Z,695
2018-02-27T09:23:22.712Z,505
2018-02-27T09:24:23.014Z,420
2018-02-27T09:25:23.000Z,295
2018-02-27T09:26:22.713Z,175
2018-02-27T09:27:22.962Z,190
2018-02-27T09:28:22.675Z,360
2018-02-27T09:29:22.975Z,475
2018-02-27T09:30:22.906Z,380
2018-02-27T09:31:22.155Z,310
2018-02-27T09:32:22.600Z,310
2018-02-27T09:33:22.374Z,330
2018-02-27T09:34:22.291Z,335
2018-02-27T09:35:22.273Z,285
2018-02-27T09:36:22.784Z,355
2018-02-27T09:37:22.512Z,490
2018-02-27T09:38:22.264Z,430
2018-02-27T09:39:22.219Z,410
2018-02-27T09:40:21.903Z,420
2018-02-27T09:41:22.423Z,275
2018-02-27T09:42:22.666Z,265
2018-02-27T09:43:22.645Z,330
2018-02-27T09:44:22.356Z,565
2018-02-27T09:45:22.870Z,430
2018-02-27T09:46:22.323Z,245
2018-02-27T09:47:22.571Z,410
2018-02-27T09:48:22.290Z,680
2018-02-27T09:49:22.248Z,745
2018-02-27T09:50:22.225Z,780
2018-02-27T09:51:22.222Z,800
2018-02-27T09:52:22.192Z,770
2018-02-27T09:53:22.441Z,830
2018-02-27T09:54:22.417Z,790
2018-02-27T09:55:22.130Z,720
2018-02-27T09:56:22.152Z,775
2018-02-27T09:57:21.845Z,850
2018-02-27T09:58:22.395Z,830
2018-02-27T09:59:21.821Z,675
2018-02-27T10:00:22.061Z,375
2018-02-27T10:01:22.303Z,285
2018-02-27T10:02:22.268Z,295
2018-02-27T10:03:21.714Z,190
2018-02-27T10:04:21.960Z,175
2018-02-27T10:05:21.934Z,210
2018-02-27T10:06:22.196Z,400
2018-02-27T10:07:21.636Z,515
2018-02-27T10:08:21.882Z,195
2018-02-27T10:09:22.119Z,485
2018-02-27T10:10:22.104Z,615
2018-02-27T10:11:21.816Z,170
2018-02-27T10:12:22.080Z,470
2018-02-27T10:13:22.048Z,250
2018-02-27T10:14:21.760Z,260
2018-02-27T10:15:21.480Z,255
2018-02-27T10:16:21.452Z,420
2018-02-27T10:17:21.753Z,500
2018-02-27T10:18:21.688Z,485
2018-02-27T10:19:21.662Z,265
2018-02-27T10:20:21.909Z,285
2018-02-27T10:21:21.611Z,480
2018-02-27T10:22:21.343Z,565
2018-02-27T10:23:21.578Z,635
2018-02-27T10:24:21.822Z,310
2018-02-27T10:25:21.272Z,680
2018-02-27T10:26:21.252Z,695
2018-02-27T10:27:21.499Z,685
2018-02-27T10:28:21.737Z,220
2018-02-27T10:29:21.508Z,555
2018-02-27T10:30:21.441Z,235
2018-02-27T10:31:21.414Z,225
2018-02-27T10:32:21.655Z,230
2018-02-27T10:33:21.371Z,225
2018-02-27T10:34:21.353Z,240
2018-02-27T10:35:21.612Z,285
2018-02-27T10:36:21.633Z,515
2018-02-27T10:37:21.297Z,510
2018-02-27T10:38:20.785Z,440
2018-02-27T10:39:20.989Z,425
2018-02-27T10:40:21.240Z,615
2018-02-27T10:41:21.207Z,660
2018-02-27T10:42:20.924Z,500
2018-02-27T10:43:21.221Z,325
2018-02-27T10:44:20.881Z,650
2018-02-27T10:45:21.215Z,670
2018-02-27T10:46:21.431Z,760
2018-02-27T10:47:21.087Z,830
2018-02-27T10:48:21.383Z,360
2018-02-27T10:49:21.308Z,390
2018-02-27T10:50:20.493Z,700
2018-02-27T10:51:21.270Z,330
2018-02-27T10:52:21.251Z,720
2018-02-27T10:53:20.971Z,720
2018-02-27T10:54:20.675Z,900
2018-02-27T10:55:20.397Z,860
2018-02-27T10:56:21.169Z,735
2018-02-27T10:57:21.539Z,260
2018-02-27T10:58:20.915Z,255
2018-02-27T10:59:20.849Z,275
2018-02-27T11:00:20.569Z,370
2018-02-27T11:01:21.096Z,315
2018-02-27T11:02:20.813Z,795
2018-02-27T11:03:20.251Z,715
2018-02-27T11:04:21.028Z,560
2018-02-27T11:05:20.481Z,530
2018-02-27T11:06:20.726Z,615
2018-02-27T11:07:20.456Z,720
2018-02-27T11:08:20.476Z,725
2018-02-27T11:09:21.203Z,770
2018-02-27T11:10:20.917Z,800
2018-02-27T11:11:20.371Z,840
2018-02-27T11:12:20.881Z,835
2018-02-27T11:13:20.875Z,960
2018-02-27T11:14:20.856Z,905
2018-02-27T11:15:20.306Z,275
2018-02-27T11:16:20.828Z,270
2018-02-27T11:17:20.800Z,380
2018-02-27T11:18:20.522Z,345
2018-02-27T11:19:20.505Z,1050
2018-02-27T11:20:20.490Z,1025
2018-02-27T11:21:20.465Z,810
2018-02-27T11:22:20.186Z,640
2018-02-27T11:23:21.100Z,640
2018-02-27T11:24:20.691Z,760
2018-02-27T11:25:20.398Z,730
2018-02-27T11:26:20.912Z,820
2018-02-27T11:27:20.636Z,660
2018-02-27T11:28:19.816Z,690
2018-02-27T11:29:20.654Z,805
2018-02-27T11:30:20.384Z,895
2018-02-27T11:31:20.300Z,1005
2018-02-27T11:32:20.290Z,360
2018-02-27T11:33:20.001Z,260
2018-02-27T11:34:20.856Z,255
2018-02-27T11:35:20.771Z,275
2018-02-27T11:36:20.288Z,270
2018-02-27T11:37:20.209Z,210
2018-02-27T11:38:20.462Z,195
2018-02-27T11:39:20.181Z,205
2018-02-27T11:40:20.444Z,205
2018-02-27T11:41:20.748Z,205
2018-02-27T11:42:19.599Z,730
2018-02-27T11:43:20.103Z,340
2018-02-27T11:44:20.351Z,260
2018-02-27T11:45:19.807Z,230
2018-02-27T11:46:20.318Z,205
2018-02-27T11:47:20.037Z,220
2018-02-27T11:48:20.023Z,250
2018-02-27T11:49:19.814Z,235
2018-02-27T11:50:20.246Z,225
2018-02-27T11:51:20.232Z,220
2018-02-27T11:52:19.960Z,205
2018-02-27T11:53:20.457Z,195
2018-02-27T11:54:20.184Z,195
2018-02-27T11:55:19.638Z,195
2018-02-27T11:56:19.880Z,195
2018-02-27T11:57:20.122Z,195
2018-02-27T11:58:19.588Z,245
2018-02-27T11:59:19.812Z,275
2018-02-27T12:00:19.256Z,295
2018-02-27T12:01:20.310Z,270
2018-02-27T12:02:19.793Z,260
2018-02-27T12:03:20.000Z,270
2018-02-27T12:04:20.246Z,275
2018-02-27T12:05:19.420Z,310
2018-02-27T12:06:19.937Z,305
2018-02-27T12:07:19.377Z,250
2018-02-27T12:08:20.035Z,225
2018-02-27T12:09:19.391Z,240
2018-02-27T12:10:19.581Z,275
2018-02-27T12:11:19.035Z,560
2018-02-27T12:12:19.542Z,595
2018-02-27T12:13:19.793Z,365
2018-02-27T12:14:19.775Z,400
2018-02-27T12:15:19.482Z,745
2018-02-27T12:16:19.188Z,530
2018-02-27T12:17:19.441Z,365
2018-02-27T12:18:19.416Z,375
2018-02-27T12:19:19.136Z,400
2018-02-27T12:20:19.371Z,415
2018-02-27T12:21:19.619Z,580
2018-02-27T12:22:19.868Z,990
2018-02-27T12:23:19.316Z,385
2018-02-27T12:24:18.768Z,360
2018-02-27T12:25:19.351Z,1005
2018-02-27T12:26:19.526Z,615
2018-02-27T12:27:19.231Z,360
2018-02-27T12:28:18.961Z,650
2018-02-27T12:29:18.983Z,735
2018-02-27T12:30:19.355Z,1040
2018-02-27T12:31:19.429Z,725
2018-02-27T12:32:19.137Z,405
2018-02-27T12:33:18.864Z,400
2018-02-27T12:34:19.099Z,445
2018-02-27T12:35:18.824Z,1150
2018-02-27T12:36:19.344Z,995
2018-02-27T12:37:19.072Z,980
2018-02-27T12:38:19.038Z,995
2018-02-27T12:39:18.758Z,975
2018-02-27T12:40:19.264Z,980
2018-02-27T12:41:18.992Z,920
2018-02-27T12:42:19.506Z,775
2018-02-27T12:43:18.690Z,265
2018-02-27T12:44:19.207Z,275
2018-02-27T12:45:19.192Z,310
2018-02-27T12:46:19.189Z,280
2018-02-27T12:47:19.167Z,670
2018-02-27T12:48:18.663Z,310
2018-02-27T12:49:19.136Z,435
2018-02-27T12:50:18.636Z,275
2018-02-27T12:51:19.103Z,280
2018-02-27T12:52:18.563Z,285
2018-02-27T12:53:18.816Z,235
2018-02-27T12:54:19.052Z,1110
2018-02-27T12:55:19.044Z,1075
2018-02-27T12:56:19.035Z,1135
2018-02-27T12:57:18.734Z,1170
2018-02-27T12:58:18.732Z,1095
2018-02-27T12:59:18.441Z,1070
2018-02-27T13:00:18.479Z,1090
2018-02-27T13:01:19.253Z,1105
2018-02-27T13:02:18.692Z,1080
2018-02-27T13:03:18.653Z,1060
2018-02-27T13:04:18.644Z,1065
2018-02-27T13:05:19.156Z,1040
2018-02-27T13:06:18.879Z,1070
2018-02-27T13:07:18.882Z,1055
2018-02-27T13:08:18.604Z,1050
2018-02-27T13:09:18.320Z,1040
2018-02-27T13:10:18.046Z,1050
2018-02-27T13:11:18.576Z,1065
2018-02-27T13:12:18.815Z,1060
2018-02-27T13:13:18.536Z,515
2018-02-27T13:14:18.794Z,1070
2018-02-27T13:15:18.798Z,1060
2018-02-27T13:16:19.035Z,1050
2018-02-27T13:17:18.518Z,1015
2018-02-27T13:18:18.485Z,1040
2018-02-27T13:19:18.621Z,1060
2018-02-27T13:20:18.462Z,1065
2018-02-27T13:21:18.472Z,1070
2018-02-27T13:22:18.204Z,1030
2018-02-27T13:23:18.845Z,1005
2018-02-27T13:24:18.459Z,1010
2018-02-27T13:25:18.953Z,1045
2018-02-27T13:26:18.714Z,1090
2018-02-27T13:27:18.665Z,1130
2018-02-27T13:28:18.396Z,1135
2018-02-27T13:29:18.659Z,1085
2018-02-27T13:30:18.119Z,1190
2018-02-27T13:31:18.635Z,1120
2018-02-27T13:32:18.631Z,1020
2018-02-27T13:33:18.091Z,900
2018-02-27T13:34:18.092Z,345
2018-02-27T13:35:18.339Z,285
2018-02-27T13:36:18.603Z,380
2018-02-27T13:37:18.333Z,245
2018-02-27T13:38:17.779Z,970
2018-02-27T13:39:18.576Z,685
2018-02-27T13:40:18.861Z,195
2018-02-27T13:41:18.286Z,180
2018-02-27T13:42:18.284Z,195
2018-02-27T13:43:18.267Z,520
2018-02-27T13:44:18.783Z,195
2018-02-27T13:45:17.971Z,195
2018-02-27T13:46:17.966Z,200
2018-02-27T13:47:18.742Z,205
2018-02-27T13:48:18.516Z,215
2018-02-27T13:49:24.842Z,225
2018-02-27T13:50:17.910Z,225
2018-02-27T13:51:17.631Z,225
2018-02-27T13:52:18.316Z,210
2018-02-27T13:53:18.685Z,200
2018-02-27T13:54:18.385Z,195
2018-02-27T13:55:17.841Z,210
2018-02-27T13:56:17.827Z,940
2018-02-27T13:57:18.347Z,895
2018-02-27T13:58:17.536Z,395
2018-02-27T13:59:18.312Z,270
2018-02-27T14:00:18.575Z,225
2018-02-27T14:01:18.549Z,205
2018-02-27T14:02:18.259Z,220
2018-02-27T14:03:17.965Z,225
2018-02-27T14:04:18.487Z,275
2018-02-27T14:05:17.662Z,290
2018-02-27T14:06:17.929Z,185
2018-02-27T14:07:18.462Z,190
2018-02-27T14:08:18.137Z,195
2018-02-27T14:09:17.591Z,165
2018-02-27T14:10:17.846Z,160
2018-02-27T14:11:17.887Z,155
2018-02-27T14:12:17.873Z,150
2018-02-27T14:13:17.798Z,145
2018-02-27T14:14:17.765Z,150